Time;durP1;ratioP1;P1;durP2;ratioP2;P2;SDS_P1;SDS_P2;PMS_P1;PMS_P2;Temp;Humidity;BMP_temperature;BMP_pressure;BME280_temperature;BME280_humidity;BME280_pressure;Samples;Min_cycle;Max_cycle;Signal;HPM_P1;HPM_P2
2023/10/31 00:02:17;;;;;;;0.62;0.62;;;12.30;99.90;;;;;;4403611;32;20057;-60
2023/10/31 00:04:42;;;;;;;0.70;0.70;;;12.30;99.90;;;;;;4405609;32;20082;-61
2023/10/31 00:07:08;;;;;;;0.70;0.70;;;12.30;99.90;;;;;;4404742;32;20424;-61
2023/10/31 00:09:33;;;;;;;1.02;0.73;;;12.40;99.90;;;;;;4403607;32;20074;-60
2023/10/31 00:11:59;;;;;;;2.05;0.77;;;12.40;99.90;;;;;;4401327;32;20644;-60
2023/10/31 00:14:25;;;;;;;0.47;0.47;;;12.30;99.90;;;;;;4406823;32;20112;-60
2023/10/31 00:16:50;;;;;;;0.50;0.50;;;12.20;99.90;;;;;;4400394;32;20085;-61
2023/10/31 00:19:15;;;;;;;1.23;0.77;;;12.20;99.90;;;;;;4388863;32;20245;-61
2023/10/31 00:21:41;;;;;;;1.05;0.95;;;12.20;99.90;;;;;;4406216;32;20129;-60
2023/10/31 00:24:07;;;;;;;0.50;0.50;;;12.20;99.90;;;;;;4406859;32;20079;-61
2023/10/31 00:26:32;;;;;;;1.37;0.75;;;12.20;99.90;;;;;;4404988;32;20083;-61
2023/10/31 00:28:58;;;;;;;1.05;0.80;;;12.30;99.90;;;;;;4405102;32;20098;-60
2023/10/31 00:31:23;;;;;;;2.65;1.02;;;12.20;99.90;;;;;;4406747;32;20430;-61
2023/10/31 00:33:48;;;;;;;0.90;0.90;;;12.20;99.90;;;;;;4401830;32;20089;-61
2023/10/31 00:36:14;;;;;;;0.80;0.80;;;12.20;99.90;;;;;;4400947;32;20081;-61
2023/10/31 00:38:39;;;;;;;1.00;0.93;;;12.20;99.90;;;;;;4402505;32;20081;-61
2023/10/31 00:41:05;;;;;;;0.50;0.50;;;12.20;99.90;;;;;;4405335;32;20501;-61
2023/10/31 00:43:30;;;;;;;1.75;0.73;;;12.20;99.90;;;;;;4406291;32;20070;-61
2023/10/31 00:45:56;;;;;;;0.57;0.57;;;12.20;99.90;;;;;;4402215;32;20066;-62
2023/10/31 00:48:21;;;;;;;0.75;0.75;;;12.10;99.90;;;;;;4402343;32;20141;-61
2023/10/31 00:50:47;;;;;;;0.50;0.50;;;12.10;99.90;;;;;;4401018;32;20081;-61
2023/10/31 00:53:14;;;;;;;1.27;0.73;;;12.10;99.90;;;;;;4403973;32;20109;-62
2023/10/31 00:55:40;;;;;;;6.43;2.10;;;12.10;99.90;;;;;;4403115;32;20581;-62
2023/10/31 00:58:05;;;;;;;1.02;0.80;;;12.10;99.90;;;;;;4398300;32;20124;-62
2023/10/31 01:00:31;;;;;;;0.50;0.47;;;12.20;99.90;;;;;;4406349;32;20058;-62
2023/10/31 01:02:57;;;;;;;0.70;0.70;;;12.10;99.90;;;;;;4403336;32;20074;-61
2023/10/31 01:05:22;;;;;;;1.48;0.70;;;12.10;99.90;;;;;;4404473;32;20565;-62
2023/10/31 01:07:48;;;;;;;0.50;0.50;;;12.10;99.90;;;;;;4401870;32;20448;-61
2023/10/31 01:10:13;;;;;;;0.77;0.77;;;12.10;99.90;;;;;;4404456;32;20120;-61
2023/10/31 01:12:39;;;;;;;0.60;0.60;;;12.10;99.90;;;;;;4405164;32;20062;-62
2023/10/31 01:15:05;;;;;;;1.35;0.93;;;12.00;99.90;;;;;;4406789;32;20086;-61
2023/10/31 01:17:30;;;;;;;0.30;0.30;;;12.00;99.90;;;;;;4397412;32;20521;-61
2023/10/31 01:19:55;;;;;;;0.50;0.50;;;12.00;99.90;;;;;;4401744;32;20133;-60
2023/10/31 01:22:21;;;;;;;0.77;0.77;;;11.90;99.90;;;;;;4402807;32;20522;-62
2023/10/31 01:24:46;;;;;;;6.70;1.35;;;11.90;99.90;;;;;;4405598;32;20161;-61
2023/10/31 01:27:12;;;;;;;0.57;0.57;;;11.90;99.90;;;;;;4406247;32;20090;-61
2023/10/31 01:29:37;;;;;;;1.02;0.73;;;11.80;99.90;;;;;;4404592;32;20058;-60
2023/10/31 01:32:03;;;;;;;0.60;0.60;;;11.80;99.90;;;;;;4407966;32;20074;-58
2023/10/31 01:34:28;;;;;;;0.70;0.70;;;11.80;99.90;;;;;;4400869;32;20098;-62
2023/10/31 01:36:54;;;;;;;1.27;0.90;;;11.90;99.90;;;;;;4400069;32;20098;-61
2023/10/31 01:39:19;;;;;;;0.80;0.80;;;11.80;99.90;;;;;;4403819;32;20061;-61
2023/10/31 01:41:45;;;;;;;0.60;0.60;;;11.80;99.90;;;;;;4402500;32;20062;-61
2023/10/31 01:44:10;;;;;;;0.57;0.57;;;11.90;99.90;;;;;;4407085;32;20065;-60
2023/10/31 01:46:36;;;;;;;0.60;0.60;;;11.90;99.90;;;;;;4404908;32;20554;-61
2023/10/31 01:49:02;;;;;;;0.85;0.85;;;11.90;99.90;;;;;;4400966;32;20086;-61
2023/10/31 01:51:28;;;;;;;0.55;0.50;;;11.90;99.90;;;;;;4402207;32;20066;-61
2023/10/31 01:53:54;;;;;;;0.50;0.50;;;11.90;99.90;;;;;;4403009;32;20083;-60
2023/10/31 01:56:20;;;;;;;0.60;0.60;;;11.90;99.90;;;;;;4397911;32;20089;-61
2023/10/31 01:58:48;;;;;;;3.22;1.12;;;11.90;99.90;;;;;;4403978;32;20090;-61
2023/10/31 02:01:14;;;;;;;7.18;1.08;;;11.80;99.90;;;;;;4406088;32;20082;-61
2023/10/31 02:03:39;;;;;;;0.57;0.57;;;11.80;99.90;;;;;;4408445;32;20073;-61
2023/10/31 02:06:05;;;;;;;1.40;0.90;;;11.80;99.90;;;;;;4404917;32;20058;-61
2023/10/31 02:08:30;;;;;;;0.90;0.70;;;11.70;99.90;;;;;;4402873;32;20109;-60
2023/10/31 02:10:56;;;;;;;0.62;0.62;;;11.70;99.90;;;;;;4406806;32;20835;-60
2023/10/31 02:13:22;;;;;;;1.62;0.73;;;11.70;99.90;;;;;;4407603;32;20066;-61
2023/10/31 02:15:47;;;;;;;2.40;1.02;;;11.80;99.90;;;;;;4406697;32;20073;-61
2023/10/31 02:18:13;;;;;;;1.75;0.82;;;11.70;99.90;;;;;;4397839;32;20128;-60
2023/10/31 02:20:39;;;;;;;3.33;0.77;;;11.70;99.90;;;;;;4407235;32;20074;-61
2023/10/31 02:23:05;;;;;;;0.40;0.40;;;11.80;99.90;;;;;;4406124;32;20120;-60
2023/10/31 02:25:31;;;;;;;0.75;0.75;;;11.80;99.90;;;;;;4405030;32;20117;-60
2023/10/31 02:27:56;;;;;;;0.85;0.62;;;11.80;99.90;;;;;;4407008;32;20057;-60
2023/10/31 02:30:22;;;;;;;0.65;0.65;;;11.70;99.90;;;;;;4408503;32;20517;-61
2023/10/31 02:32:48;;;;;;;0.40;0.40;;;11.70;99.90;;;;;;4404382;32;20066;-61
2023/10/31 02:35:17;;;;;;;0.60;0.60;;;11.60;99.90;;;;;;4406143;32;20079;-60
2023/10/31 02:37:43;;;;;;;0.98;0.98;;;11.60;99.90;;;;;;4386030;32;20073;-59
2023/10/31 02:40:09;;;;;;;1.52;0.82;;;11.70;99.90;;;;;;4404915;32;20569;-61
2023/10/31 02:42:35;;;;;;;1.05;0.93;;;11.70;99.90;;;;;;4404260;32;20419;-60
2023/10/31 02:45:00;;;;;;;13.32;1.20;;;11.70;99.90;;;;;;4406534;32;20057;-60
2023/10/31 02:47:26;;;;;;;0.60;0.60;;;11.70;99.90;;;;;;4403693;32;20105;-59
2023/10/31 02:49:51;;;;;;;0.65;0.65;;;11.70;99.90;;;;;;4406435;32;20086;-61
2023/10/31 02:52:17;;;;;;;0.40;0.40;;;11.70;99.90;;;;;;4402283;32;20066;-60
2023/10/31 02:54:42;;;;;;;2.17;1.45;;;11.70;99.90;;;;;;4407302;32;20124;-60
2023/10/31 02:57:08;;;;;;;2.50;0.60;;;11.70;99.90;;;;;;4403913;32;20537;-60
2023/10/31 02:59:33;;;;;;;0.68;0.62;;;11.80;99.90;;;;;;4405686;32;20139;-59
2023/10/31 03:01:59;;;;;;;1.00;0.60;;;11.80;99.90;;;;;;4402677;32;20061;-60
2023/10/31 03:04:25;;;;;;;0.77;0.77;;;11.80;99.90;;;;;;4403755;32;20077;-61
2023/10/31 03:06:50;;;;;;;0.40;0.40;;;11.80;99.90;;;;;;4403738;32;20089;-60
2023/10/31 03:09:16;;;;;;;0.65;0.65;;;11.70;99.90;;;;;;4404135;32;20074;-60
2023/10/31 03:11:41;;;;;;;0.70;0.60;;;11.70;99.90;;;;;;4405990;32;20074;-59
2023/10/31 03:14:07;;;;;;;0.88;0.70;;;11.80;99.90;;;;;;4406216;32;20066;-60
2023/10/31 03:16:32;;;;;;;0.50;0.50;;;11.80;99.90;;;;;;4404046;32;20065;-60
2023/10/31 03:18:58;;;;;;;1.02;0.90;;;11.70;99.90;;;;;;4402390;32;20294;-60
2023/10/31 03:21:25;;;;;;;0.40;0.40;;;11.70;99.90;;;;;;4404461;32;20074;-60
2023/10/31 03:23:52;;;;;;;4.15;0.70;;;11.60;99.90;;;;;;4405128;32;20062;-61
2023/10/31 03:26:18;;;;;;;0.82;0.82;;;11.60;99.90;;;;;;4401099;32;20112;-60
2023/10/31 03:28:45;;;;;;;1.58;0.90;;;11.70;99.90;;;;;;4406270;32;20059;-60
2023/10/31 03:31:11;;;;;;;0.57;0.57;;;11.70;99.90;;;;;;4407173;32;20071;-59
2023/10/31 03:33:36;;;;;;;0.50;0.50;;;11.80;99.90;;;;;;4405369;32;20501;-60
2023/10/31 03:36:03;;;;;;;0.80;0.80;;;11.80;99.90;;;;;;4401854;32;20077;-60
2023/10/31 03:38:28;;;;;;;0.80;0.73;;;11.70;99.90;;;;;;4402429;32;20062;-60
2023/10/31 03:40:54;;;;;;;0.70;0.70;;;11.70;99.90;;;;;;4406698;32;20614;-59
2023/10/31 03:43:19;;;;;;;1.33;1.02;;;11.70;99.90;;;;;;4409144;32;20081;-60
2023/10/31 03:45:47;;;;;;;0.70;0.70;;;11.70;99.90;;;;;;4406701;32;21165;-61
2023/10/31 03:48:13;;;;;;;0.35;0.35;;;11.70;99.90;;;;;;4397942;32;20063;-60
2023/10/31 03:50:38;;;;;;;0.50;0.50;;;11.60;99.90;;;;;;4403539;32;20083;-60
2023/10/31 03:53:04;;;;;;;4.28;1.65;;;11.60;99.90;;;;;;4405768;32;20074;-59
2023/10/31 03:55:30;;;;;;;1.35;1.23;;;11.60;99.90;;;;;;4399809;32;20090;-58
2023/10/31 03:57:56;;;;;;;1.37;1.27;;;11.70;99.90;;;;;;4400740;32;20210;-60
2023/10/31 04:00:22;;;;;;;4.10;1.00;;;11.60;99.90;;;;;;4403981;32;20120;-59
2023/10/31 04:02:47;;;;;;;0.62;0.62;;;11.60;99.90;;;;;;4406565;32;20058;-59
2023/10/31 04:05:13;;;;;;;0.70;0.70;;;11.60;99.90;;;;;;4405997;32;20086;-60
2023/10/31 04:07:38;;;;;;;0.55;0.55;;;11.60;99.90;;;;;;4401414;32;20514;-59
2023/10/31 04:10:05;;;;;;;3.30;1.05;;;11.60;99.90;;;;;;4402340;32;20106;-61
2023/10/31 04:12:31;;;;;;;2.55;1.02;;;11.60;99.90;;;;;;4403719;32;20058;-61
2023/10/31 04:14:56;;;;;;;0.60;0.60;;;11.70;99.90;;;;;;4406562;32;20165;-60
2023/10/31 04:17:22;;;;;;;0.40;0.40;;;11.60;99.90;;;;;;4399831;32;20518;-60
2023/10/31 04:19:47;;;;;;;0.73;0.65;;;11.60;99.90;;;;;;4403268;32;20625;-61
2023/10/31 04:22:13;;;;;;;2.45;0.60;;;11.70;99.90;;;;;;4404289;32;20173;-60
2023/10/31 04:24:38;;;;;;;0.68;0.68;;;11.60;99.90;;;;;;4404224;32;20512;-61
2023/10/31 04:27:04;;;;;;;0.98;0.98;;;11.60;99.90;;;;;;4401116;32;20078;-60
2023/10/31 04:29:29;;;;;;;1.00;0.70;;;11.60;99.90;;;;;;4406540;32;20132;-60
2023/10/31 04:31:55;;;;;;;1.08;0.77;;;11.60;99.90;;;;;;4408016;32;20077;-60
2023/10/31 04:34:20;;;;;;;0.90;0.90;;;11.60;99.90;;;;;;4405439;32;21369;-61
2023/10/31 04:36:45;;;;;;;0.50;0.50;;;11.60;99.90;;;;;;4401683;32;20460;-60
2023/10/31 04:39:11;;;;;;;0.80;0.80;;;11.60;99.90;;;;;;4404694;32;20097;-61
2023/10/31 04:41:36;;;;;;;1.10;1.00;;;11.60;99.90;;;;;;4405187;32;20592;-62
2023/10/31 04:44:02;;;;;;;0.68;0.68;;;11.60;99.90;;;;;;4405313;32;20061;-60
2023/10/31 04:46:28;;;;;;;0.65;0.65;;;11.70;99.90;;;;;;4403055;32;20117;-60
2023/10/31 04:48:53;;;;;;;0.68;0.68;;;11.70;99.90;;;;;;4406718;32;20078;-60
2023/10/31 04:51:19;;;;;;;0.40;0.40;;;11.70;99.90;;;;;;4404181;32;20518;-60
2023/10/31 04:53:45;;;;;;;0.60;0.60;;;11.70;99.90;;;;;;4405671;32;20068;-60
2023/10/31 04:56:14;;;;;;;0.62;0.62;;;11.70;99.90;;;;;;4402692;32;20510;-59
2023/10/31 04:58:40;;;;;;;0.95;0.95;;;11.70;99.90;;;;;;4400153;32;20485;-61
2023/10/31 05:01:09;;;;;;;0.60;0.60;;;11.70;99.90;;;;;;4405483;32;20078;-61
2023/10/31 05:03:34;;;;;;;3.47;0.90;;;11.70;99.90;;;;;;4404918;32;20074;-61
2023/10/31 05:05:59;;;;;;;0.90;0.57;;;11.70;99.90;;;;;;4406158;32;20062;-61
2023/10/31 05:08:25;;;;;;;0.47;0.47;;;11.80;99.90;;;;;;4389715;32;20217;-60
2023/10/31 05:10:50;;;;;;;0.30;0.30;;;11.70;99.90;;;;;;4407920;32;20077;-60
2023/10/31 05:13:16;;;;;;;0.43;0.43;;;11.80;99.90;;;;;;4407041;32;20074;-61
2023/10/31 05:15:41;;;;;;;0.50;0.50;;;11.80;99.90;;;;;;4402834;32;20070;-60
2023/10/31 05:18:07;;;;;;;0.50;0.50;;;11.80;99.90;;;;;;4399612;32;20510;-59
2023/10/31 05:20:32;;;;;;;0.60;0.60;;;11.80;99.90;;;;;;4403788;32;20369;-60
2023/10/31 05:22:58;;;;;;;0.62;0.62;;;11.80;99.90;;;;;;4400959;32;20134;-59
2023/10/31 05:25:23;;;;;;;2.75;1.48;;;11.80;99.90;;;;;;4402541;32;20074;-59
2023/10/31 05:27:49;;;;;;;0.40;0.40;;;11.90;99.90;;;;;;4400186;32;20094;-60
2023/10/31 05:30:14;;;;;;;0.73;0.73;;;11.90;99.90;;;;;;4403797;32;20609;-60
2023/10/31 05:32:40;;;;;;;2.60;0.70;;;11.90;99.90;;;;;;4403218;32;20057;-59
2023/10/31 05:35:05;;;;;;;0.40;0.40;;;11.90;99.90;;;;;;4405062;32;20070;-59
2023/10/31 05:37:31;;;;;;;1.00;0.80;;;11.90;99.90;;;;;;4399296;32;20140;-59
2023/10/31 05:39:56;;;;;;;0.50;0.50;;;11.90;99.90;;;;;;4404802;32;21447;-59
2023/10/31 05:42:23;;;;;;;0.50;0.50;;;11.90;99.90;;;;;;4392104;32;20086;-59
2023/10/31 05:44:48;;;;;;;0.60;0.60;;;11.90;99.90;;;;;;4405880;32;20070;-60
2023/10/31 05:47:14;;;;;;;0.50;0.50;;;11.90;99.90;;;;;;4403329;32;20066;-60
2023/10/31 05:49:42;;;;;;;1.17;0.50;;;11.90;99.90;;;;;;4403503;32;20074;-59
2023/10/31 05:52:07;;;;;;;0.50;0.50;;;12.00;99.90;;;;;;4405130;32;20568;-59
2023/10/31 05:54:33;;;;;;;0.70;0.70;;;12.00;99.90;;;;;;4405251;32;20069;-59
2023/10/31 05:56:58;;;;;;;1.65;0.75;;;12.00;99.90;;;;;;4398949;32;21173;-59
2023/10/31 05:59:24;;;;;;;0.47;0.47;;;12.00;99.90;;;;;;4400931;32;20572;-59
2023/10/31 06:01:50;;;;;;;0.43;0.43;;;12.00;99.90;;;;;;4404754;32;20482;-60
2023/10/31 06:04:15;;;;;;;0.98;0.95;;;12.00;99.90;;;;;;4403546;32;20078;-59
2023/10/31 06:06:41;;;;;;;0.73;0.52;;;12.10;99.90;;;;;;4407019;32;20494;-60
2023/10/31 06:09:06;;;;;;;0.52;0.52;;;12.10;99.90;;;;;;4404467;32;20085;-59
2023/10/31 06:11:32;;;;;;;0.47;0.47;;;12.10;99.90;;;;;;4401289;32;20089;-60
2023/10/31 06:13:59;;;;;;;0.30;0.30;;;12.10;99.90;;;;;;4401295;32;20066;-59
2023/10/31 06:16:24;;;;;;;0.40;0.40;;;12.20;99.90;;;;;;4400052;32;20098;-59
2023/10/31 06:18:50;;;;;;;0.60;0.60;;;12.10;99.90;;;;;;4400081;32;20065;-61
2023/10/31 06:21:15;;;;;;;0.70;0.70;;;12.10;99.90;;;;;;4403061;32;20061;-59
2023/10/31 06:23:42;;;;;;;0.40;0.40;;;12.10;99.90;;;;;;4405354;32;20573;-60
2023/10/31 06:26:08;;;;;;;0.75;0.60;;;12.20;99.90;;;;;;4405429;32;20525;-60
2023/10/31 06:28:35;;;;;;;0.40;0.40;;;12.20;99.90;;;;;;4402711;32;20113;-59
2023/10/31 06:31:02;;;;;;;0.30;0.30;;;12.30;99.90;;;;;;4402336;32;20411;-60
2023/10/31 06:33:27;;;;;;;0.60;0.60;;;12.20;99.90;;;;;;4401344;32;20069;-60
2023/10/31 06:35:53;;;;;;;0.52;0.52;;;12.20;99.90;;;;;;4402526;32;20342;-58
2023/10/31 06:38:19;;;;;;;0.47;0.47;;;12.30;99.90;;;;;;4397497;32;20081;-60
2023/10/31 06:40:45;;;;;;;0.40;0.40;;;12.20;99.90;;;;;;4404509;32;21106;-60
2023/10/31 06:43:10;;;;;;;0.98;0.95;;;12.20;99.90;;;;;;4404717;32;20079;-60
2023/10/31 06:45:36;;;;;;;0.55;0.55;;;12.30;99.90;;;;;;4405987;32;20081;-59
2023/10/31 06:48:02;;;;;;;0.37;0.37;;;12.30;99.90;;;;;;4405783;32;20073;-59
2023/10/31 06:50:28;;;;;;;0.30;0.30;;;12.30;99.90;;;;;;4402201;32;20499;-60
2023/10/31 06:52:53;;;;;;;0.30;0.30;;;12.30;99.90;;;;;;4405460;32;20343;-60
2023/10/31 06:55:19;;;;;;;0.60;0.60;;;12.30;99.90;;;;;;4404626;32;20142;-60
2023/10/31 06:57:44;;;;;;;19.37;0.80;;;12.40;99.90;;;;;;4398934;32;20411;-60
2023/10/31 07:02:35;;;;;;;0.60;0.60;;;12.40;99.90;;;;;;4404200;32;20132;-59
2023/10/31 07:05:02;;;;;;;0.40;0.40;;;12.40;99.90;;;;;;4400742;32;20122;-59
2023/10/31 07:07:29;;;;;;;0.40;0.40;;;12.40;99.90;;;;;;4405058;32;20069;-60
2023/10/31 07:09:55;;;;;;;0.30;0.30;;;12.40;99.90;;;;;;4404800;32;20065;-59
2023/10/31 07:12:20;;;;;;;0.47;0.47;;;12.40;99.90;;;;;;4402997;32;20094;-60
2023/10/31 07:14:46;;;;;;;0.35;0.35;;;12.40;99.90;;;;;;4406810;32;20082;-60
2023/10/31 07:17:11;;;;;;;0.62;0.62;;;12.50;99.90;;;;;;4402827;32;20508;-60
2023/10/31 07:19:36;;;;;;;0.50;0.50;;;12.40;99.90;;;;;;4405466;32;20050;-60
2023/10/31 07:22:03;;;;;;;0.30;0.30;;;12.50;99.90;;;;;;4390375;32;20138;-60
2023/10/31 07:24:28;;;;;;;0.60;0.60;;;12.40;99.90;;;;;;4404395;32;20554;-59
2023/10/31 07:26:54;;;;;;;0.30;0.30;;;12.50;99.90;;;;;;4401684;32;20078;-58
2023/10/31 07:29:20;;;;;;;0.40;0.40;;;12.40;99.90;;;;;;4406573;32;20148;-60
2023/10/31 07:31:45;;;;;;;0.40;0.40;;;12.40;99.90;;;;;;4407124;32;20077;-62
2023/10/31 07:34:11;;;;;;;0.30;0.30;;;12.30;99.90;;;;;;4408231;32;20495;-61
2023/10/31 07:36:37;;;;;;;0.35;0.35;;;12.30;99.90;;;;;;4399480;32;20545;-61
2023/10/31 07:39:03;;;;;;;0.30;0.30;;;12.30;99.90;;;;;;4401004;32;20053;-62
2023/10/31 07:41:29;;;;;;;0.40;0.40;;;12.20;99.90;;;;;;4405323;32;20077;-61
2023/10/31 07:43:55;;;;;;;0.37;0.37;;;12.10;99.90;;;;;;4406226;32;20438;-62
2023/10/31 07:46:20;;;;;;;0.30;0.30;;;12.10;99.90;;;;;;4405634;32;20065;-62
2023/10/31 07:48:46;;;;;;;0.30;0.30;;;12.10;99.90;;;;;;4404194;32;20086;-62
2023/10/31 07:51:11;;;;;;;0.30;0.30;;;12.00;99.90;;;;;;4406067;32;20066;-61
2023/10/31 07:53:37;;;;;;;2.17;0.60;;;12.00;99.90;;;;;;4406890;32;20074;-62
2023/10/31 07:56:03;;;;;;;0.30;0.30;;;12.00;99.90;;;;;;4404144;32;20082;-63
2023/10/31 07:58:28;;;;;;;0.30;0.30;;;12.00;99.90;;;;;;4397416;32;20423;-62
2023/10/31 08:00:54;;;;;;;0.32;0.32;;;12.00;99.90;;;;;;4402390;32;20113;-62
2023/10/31 08:03:19;;;;;;;0.37;0.37;;;11.90;99.90;;;;;;4407403;32;20459;-62
2023/10/31 08:05:45;;;;;;;0.37;0.37;;;11.90;99.90;;;;;;4399836;32;20082;-62
2023/10/31 08:08:10;;;;;;;0.65;0.65;;;11.90;99.90;;;;;;4402082;32;20069;-62
2023/10/31 08:10:36;;;;;;;1.37;0.50;;;12.00;99.90;;;;;;4402345;32;20070;-62
2023/10/31 08:13:01;;;;;;;0.30;0.30;;;12.00;99.90;;;;;;4406447;32;20120;-61
2023/10/31 08:15:27;;;;;;;0.20;0.20;;;12.00;99.90;;;;;;4408034;32;20078;-62
2023/10/31 08:17:52;;;;;;;0.25;0.25;;;12.00;99.90;;;;;;4397500;32;20111;-61
2023/10/31 08:20:18;;;;;;;1.12;1.02;;;12.00;99.90;;;;;;4403746;32;20065;-62
2023/10/31 08:22:45;;;;;;;0.40;0.40;;;12.00;99.90;;;;;;4404794;32;20074;-63
2023/10/31 08:25:10;;;;;;;0.28;0.28;;;12.00;99.90;;;;;;4405707;32;20129;-61
2023/10/31 08:27:36;;;;;;;0.30;0.30;;;12.00;99.90;;;;;;4403504;32;20069;-62
2023/10/31 08:30:02;;;;;;;0.28;0.28;;;12.00;99.90;;;;;;4406488;32;20157;-62
2023/10/31 08:32:28;;;;;;;0.88;0.57;;;12.10;99.90;;;;;;4404036;32;20526;-62
2023/10/31 08:34:54;;;;;;;0.40;0.40;;;12.10;99.90;;;;;;4391244;32;20086;-62
2023/10/31 08:37:19;;;;;;;0.37;0.37;;;12.20;99.90;;;;;;4401548;32;20081;-62
2023/10/31 08:39:45;;;;;;;0.30;0.30;;;12.20;99.90;;;;;;4404132;32;20089;-61
2023/10/31 08:42:10;;;;;;;0.30;0.30;;;12.30;99.90;;;;;;4407437;32;20070;-62
2023/10/31 08:44:37;;;;;;;0.30;0.30;;;12.30;99.90;;;;;;4405941;32;20077;-62
2023/10/31 08:47:03;;;;;;;0.43;0.40;;;12.40;99.90;;;;;;4404229;32;20071;-63
2023/10/31 08:49:29;;;;;;;0.30;0.30;;;12.50;99.90;;;;;;4405415;32;20629;-63
2023/10/31 08:51:54;;;;;;;0.50;0.50;;;12.60;99.90;;;;;;4402343;32;20097;-63
2023/10/31 08:54:20;;;;;;;0.30;0.30;;;12.70;99.90;;;;;;4405165;32;20090;-63
2023/10/31 08:56:45;;;;;;;0.30;0.30;;;12.70;99.90;;;;;;4399541;32;20474;-61
2023/10/31 08:59:11;;;;;;;0.30;0.30;;;12.60;99.90;;;;;;4400514;32;20074;-62
2023/10/31 09:01:36;;;;;;;0.30;0.30;;;12.60;99.90;;;;;;4402867;32;20569;-62
2023/10/31 09:04:02;;;;;;;0.30;0.30;;;12.50;99.90;;;;;;4405226;32;20121;-59
2023/10/31 09:06:27;;;;;;;0.40;0.40;;;12.50;99.90;;;;;;4401561;32;20120;-63
2023/10/31 09:08:53;;;;;;;0.32;0.32;;;12.50;99.90;;;;;;4404601;32;21188;-63
2023/10/31 09:11:19;;;;;;;0.30;0.30;;;12.50;99.90;;;;;;4403627;32;20090;-62
2023/10/31 09:13:44;;;;;;;0.30;0.30;;;12.50;99.90;;;;;;4405784;32;20082;-63
2023/10/31 09:16:10;;;;;;;0.30;0.30;;;12.50;99.90;;;;;;4402791;32;20074;-62
2023/10/31 09:18:36;;;;;;;0.30;0.30;;;12.50;99.90;;;;;;4403391;32;20460;-63
2023/10/31 09:21:01;;;;;;;0.40;0.40;;;12.50;99.90;;;;;;4404319;32;20130;-62
2023/10/31 09:23:27;;;;;;;0.40;0.40;;;12.50;99.90;;;;;;4406671;32;20373;-63
2023/10/31 09:25:52;;;;;;;0.30;0.30;;;12.60;99.90;;;;;;4406073;32;20082;-63
2023/10/31 09:28:18;;;;;;;0.28;0.28;;;12.60;99.90;;;;;;4401508;32;20082;-62
2023/10/31 09:30:43;;;;;;;0.40;0.40;;;12.60;99.90;;;;;;4403928;32;20568;-63
2023/10/31 09:33:09;;;;;;;0.40;0.40;;;12.60;99.90;;;;;;4387385;32;20062;-62
2023/10/31 09:35:35;;;;;;;0.30;0.30;;;12.60;99.90;;;;;;4402309;32;20131;-60
2023/10/31 09:38:00;;;;;;;0.30;0.30;;;12.70;99.90;;;;;;4399631;32;20069;-62
2023/10/31 09:40:26;;;;;;;0.30;0.30;;;12.70;99.90;;;;;;4404508;32;20751;-62
2023/10/31 09:42:51;;;;;;;0.35;0.35;;;12.80;99.90;;;;;;4402407;32;20073;-62
2023/10/31 09:45:17;;;;;;;0.30;0.30;;;12.80;99.90;;;;;;4401759;32;20073;-63
2023/10/31 09:47:44;;;;;;;0.30;0.30;;;12.80;99.90;;;;;;4401469;32;20161;-63
2023/10/31 09:50:11;;;;;;;0.40;0.40;;;12.80;99.90;;;;;;4407294;32;20073;-63
2023/10/31 09:52:37;;;;;;;0.35;0.30;;;12.90;99.90;;;;;;4403960;32;20066;-63
2023/10/31 09:55:03;;;;;;;0.40;0.40;;;13.00;99.90;;;;;;4404718;32;20874;-63
2023/10/31 09:57:29;;;;;;;0.37;0.37;;;13.00;99.90;;;;;;4397565;32;20070;-62
2023/10/31 09:59:54;;;;;;;0.30;0.30;;;12.90;99.90;;;;;;4405044;32;20085;-63
2023/10/31 10:02:20;;;;;;;0.30;0.30;;;12.90;99.90;;;;;;4403418;32;20502;-63
2023/10/31 10:04:45;;;;;;;0.30;0.30;;;12.80;99.90;;;;;;4408026;32;20529;-63
2023/10/31 10:07:16;;;;;;;0.30;0.30;;;12.80;99.90;;;;;;4399751;32;20218;-62
2023/10/31 10:09:43;;;;;;;0.30;0.30;;;12.80;99.90;;;;;;4401564;32;20070;-61
2023/10/31 10:12:12;;;;;;;0.30;0.30;;;12.80;99.90;;;;;;4402043;32;20066;-62
2023/10/31 10:14:38;;;;;;;0.32;0.32;;;12.80;99.90;;;;;;4401431;32;20057;-62
2023/10/31 10:17:16;;;;;;;0.73;0.73;;;12.80;99.90;;;;;;4400416;32;20074;-63
2023/10/31 10:19:41;;;;;;;0.30;0.30;;;12.80;99.90;;;;;;4401382;32;20440;-64
2023/10/31 10:22:07;;;;;;;0.30;0.30;;;12.80;99.90;;;;;;4402493;32;20078;-62
2023/10/31 10:24:32;;;;;;;0.30;0.30;;;12.90;99.90;;;;;;4406208;32;20089;-63
2023/10/31 10:26:58;;;;;;;0.30;0.30;;;13.00;99.90;;;;;;4403045;32;20094;-63
2023/10/31 10:29:24;;;;;;;0.30;0.30;;;13.00;99.90;;;;;;4403479;32;20249;-62
2023/10/31 10:31:49;;;;;;;0.37;0.37;;;13.10;99.90;;;;;;4403030;32;20129;-63
2023/10/31 10:34:16;;;;;;;0.22;0.22;;;13.20;99.90;;;;;;4389778;32;20522;-63
2023/10/31 10:36:49;;;;;;;0.30;0.30;;;13.30;99.90;;;;;;4388881;32;20054;-63
2023/10/31 10:39:19;;;;;;;0.35;0.35;;;13.40;99.90;;;;;;4401821;32;20082;-63
2023/10/31 10:41:50;;;;;;;0.30;0.30;;;13.40;99.90;;;;;;4408048;32;20077;-63
2023/10/31 10:44:16;;;;;;;0.40;0.40;;;13.50;99.90;;;;;;4408614;32;20124;-63
2023/10/31 10:46:47;;;;;;;3.70;0.65;;;13.50;99.90;;;;;;4407350;32;20465;-63
2023/10/31 10:49:14;;;;;;;0.40;0.40;;;13.50;99.90;;;;;;4402281;32;20075;-62
2023/10/31 10:51:49;;;;;;;0.40;0.40;;;13.40;99.90;;;;;;4402973;32;20086;-62
2023/10/31 10:54:22;;;;;;;0.43;0.43;;;13.50;99.90;;;;;;4391276;32;20058;-61
2023/10/31 10:57:03;;;;;;;0.62;0.40;;;13.60;99.90;;;;;;4401985;32;20066;-61
2023/10/31 10:59:38;;;;;;;0.47;0.47;;;13.70;99.90;;;;;;4406652;32;20066;-61
2023/10/31 11:02:06;;;;;;;0.40;0.40;;;13.70;99.90;;;;;;4408728;32;20082;-62
2023/10/31 11:04:33;;;;;;;0.40;0.40;;;13.70;99.90;;;;;;4406349;32;20073;-62
2023/10/31 11:06:59;;;;;;;0.37;0.37;;;13.60;99.90;;;;;;4407495;32;20164;-62
2023/10/31 11:09:25;;;;;;;0.40;0.40;;;13.60;99.90;;;;;;4402184;32;20074;-63
2023/10/31 11:11:52;;;;;;;0.30;0.30;;;13.60;99.90;;;;;;4406793;32;20070;-62
2023/10/31 11:14:18;;;;;;;0.30;0.30;;;13.70;99.90;;;;;;4392077;32;20058;-62
2023/10/31 11:16:48;;;;;;;0.40;0.40;;;13.80;99.90;;;;;;4400536;32;20093;-61
2023/10/31 11:19:15;;;;;;;0.65;0.65;;;13.70;99.90;;;;;;4405243;32;20082;-61
2023/10/31 11:22:01;;;;;;;0.50;0.50;;;13.70;99.90;;;;;;4403333;32;20081;-62
2023/10/31 11:24:32;;;;;;;0.40;0.40;;;13.70;99.90;;;;;;4388304;32;20062;-62
2023/10/31 11:27:01;;;;;;;0.30;0.30;;;13.60;99.90;;;;;;4402269;32;20537;-62
2023/10/31 11:29:26;;;;;;;0.30;0.30;;;13.60;99.90;;;;;;4392712;32;20057;-63
2023/10/31 11:31:55;;;;;;;0.30;0.30;;;13.60;99.90;;;;;;4404278;32;20090;-61
2023/10/31 11:34:20;;;;;;;0.30;0.30;;;13.60;99.90;;;;;;4407943;32;20120;-62
2023/10/31 11:36:46;;;;;;;0.40;0.40;;;13.60;99.90;;;;;;4399893;32;20070;-62
2023/10/31 11:39:15;;;;;;;0.37;0.37;;;13.50;99.90;;;;;;4403458;32;20094;-63
2023/10/31 11:41:48;;;;;;;0.30;0.30;;;13.50;99.90;;;;;;4399410;32;20069;-60
2023/10/31 11:44:15;;;;;;;0.30;0.30;;;13.40;99.90;;;;;;4401254;32;20086;-62
2023/10/31 11:46:40;;;;;;;0.30;0.30;;;13.30;99.90;;;;;;4402285;32;21362;-62
2023/10/31 11:49:06;;;;;;;0.40;0.40;;;13.30;99.90;;;;;;4402711;32;84328;-63
2023/10/31 11:51:32;;;;;;;0.30;0.30;;;13.30;99.90;;;;;;4404475;32;20090;-63
2023/10/31 11:54:01;;;;;;;0.73;0.73;;;13.40;99.90;;;;;;4402172;32;20061;-63
2023/10/31 11:56:27;;;;;;;0.30;0.30;;;13.50;99.90;;;;;;4385875;32;20671;-62
2023/10/31 11:58:56;;;;;;;2.12;1.23;;;13.40;99.90;;;;;;4396340;32;20105;-62
2023/10/31 12:01:22;;;;;;;0.30;0.30;;;13.40;99.90;;;;;;4406387;32;20552;-62
2023/10/31 12:03:48;;;;;;;0.32;0.32;;;13.30;99.90;;;;;;4406324;32;20117;-62
2023/10/31 12:06:14;;;;;;;0.30;0.30;;;13.30;99.90;;;;;;4407055;32;20137;-63
2023/10/31 12:08:42;;;;;;;0.40;0.40;;;13.40;99.90;;;;;;4402987;32;20073;-62
2023/10/31 12:11:10;;;;;;;0.30;0.30;;;13.40;99.90;;;;;;4403944;32;20509;-62
2023/10/31 12:13:39;;;;;;;0.40;0.40;;;13.40;99.90;;;;;;4403040;32;20150;-62
2023/10/31 12:16:06;;;;;;;0.30;0.30;;;13.30;99.90;;;;;;4404384;32;20076;-62
2023/10/31 12:18:33;;;;;;;0.30;0.30;;;13.30;99.90;;;;;;4394296;32;20129;-63
2023/10/31 12:20:59;;;;;;;0.50;0.50;;;13.20;99.90;;;;;;4405032;32;20074;-62
2023/10/31 12:23:25;;;;;;;0.50;0.50;;;13.20;99.90;;;;;;4405656;32;20207;-62
2023/10/31 12:25:51;;;;;;;0.50;0.50;;;13.10;99.90;;;;;;4407862;32;20528;-63
2023/10/31 12:28:20;;;;;;;0.60;0.60;;;13.10;99.90;;;;;;4403274;32;20070;-62
2023/10/31 12:30:51;;;;;;;0.32;0.32;;;13.10;99.90;;;;;;4388805;32;20474;-63
2023/10/31 12:33:17;;;;;;;0.40;0.40;;;13.10;99.90;;;;;;4404843;32;20089;-63
2023/10/31 12:35:44;;;;;;;0.35;0.35;;;13.10;99.90;;;;;;4402647;32;20087;-62
2023/10/31 12:38:12;;;;;;;0.20;0.20;;;13.10;99.90;;;;;;4394358;32;20073;-62
2023/10/31 12:40:39;;;;;;;0.30;0.30;;;13.20;99.90;;;;;;4398682;32;20169;-61
2023/10/31 12:43:04;;;;;;;0.32;0.32;;;13.20;99.90;;;;;;4404946;32;20594;-62
2023/10/31 12:45:30;;;;;;;1.08;0.82;;;13.20;99.90;;;;;;4401191;32;20066;-63